Time;durP1;ratioP1;P1;durP2;ratioP2;P2;SDS_P1;SDS_P2;PMS_P1;PMS_P2;Temp;Humidity;BMP_temperature;BMP_pressure;BME280_temperature;BME280_humidity;BME280_pressure;Samples;Min_cycle;Max_cycle;Signal;HPM_P1;HPM_P2
2024/01/14 00:01:58;;;;;;;1.57;1.47;;;11.80;99.90;;;;;;10455243;28;20248;-82
2024/01/14 00:07:01;;;;;;;2.03;1.63;;;12.00;99.90;;;;;;10455183;28;20801;-82
2024/01/14 00:12:05;;;;;;;3.03;2.67;;;11.90;99.90;;;;;;10468854;28;20969;-82
2024/01/14 00:17:08;;;;;;;3.80;2.60;;;11.70;99.90;;;;;;10474515;28;20267;-82
2024/01/14 00:22:10;;;;;;;3.30;1.97;;;11.50;99.90;;;;;;10483499;28;20240;-81
2024/01/14 00:27:13;;;;;;;3.00;2.27;;;11.50;99.90;;;;;;10492822;28;20286;-81
2024/01/14 00:32:16;;;;;;;4.50;2.77;;;11.50;99.90;;;;;;10495567;28;20350;-82
2024/01/14 00:37:18;;;;;;;2.10;1.53;;;11.40;99.90;;;;;;10494894;28;20254;-82
2024/01/14 00:42:22;;;;;;;3.40;2.53;;;11.40;99.90;;;;;;10494954;28;20237;-82
2024/01/14 00:47:24;;;;;;;2.90;2.67;;;11.10;99.90;;;;;;10493833;28;20249;-82
2024/01/14 00:52:27;;;;;;;1.83;1.70;;;11.10;99.90;;;;;;10487359;28;20224;-82
2024/01/14 00:57:30;;;;;;;2.30;1.67;;;11.20;99.90;;;;;;10459565;28;20258;-82
2024/01/14 01:02:32;;;;;;;2.30;1.60;;;11.60;99.90;;;;;;10493826;28;20307;-81
2024/01/14 01:07:35;;;;;;;4.13;3.47;;;11.50;99.90;;;;;;10491763;28;20263;-82
2024/01/14 01:12:38;;;;;;;2.50;1.57;;;11.60;99.90;;;;;;10452805;28;20260;-81
2024/01/14 01:17:40;;;;;;;3.33;1.23;;;11.50;99.90;;;;;;10478523;28;20260;-82
2024/01/14 01:22:43;;;;;;;2.40;1.40;;;11.50;99.90;;;;;;10463585;28;20256;-81
2024/01/14 01:27:45;;;;;;;2.90;2.10;;;11.40;99.90;;;;;;10455726;28;20787;-82
2024/01/14 01:32:49;;;;;;;3.47;2.20;;;11.30;99.90;;;;;;10451599;28;20686;-82
2024/01/14 01:37:52;;;;;;;1.40;1.30;;;11.60;99.90;;;;;;10449876;28;20265;-81
2024/01/14 01:42:55;;;;;;;1.83;1.30;;;11.50;99.90;;;;;;10451302;28;20261;-81
2024/01/14 01:47:59;;;;;;;3.00;2.13;;;11.20;99.90;;;;;;10450518;28;20253;-81
2024/01/14 01:53:02;;;;;;;2.90;2.67;;;11.00;99.90;;;;;;10479717;28;20230;-81
2024/01/14 01:58:05;;;;;;;0.87;0.87;;;10.90;99.90;;;;;;10491838;28;20654;-81
2024/01/14 02:03:09;;;;;;;3.07;1.90;;;10.60;99.90;;;;;;10491899;28;20230;-81
2024/01/14 02:08:12;;;;;;;1.40;1.30;;;10.40;99.90;;;;;;10491889;28;20257;-81
2024/01/14 02:13:15;;;;;;;3.97;1.93;;;10.90;99.90;;;;;;10490169;28;20239;-81
2024/01/14 02:18:17;;;;;;;2.67;1.47;;;11.20;99.90;;;;;;10450467;28;20237;-81
2024/01/14 02:23:22;;;;;;;2.13;1.93;;;11.30;99.90;;;;;;10483331;28;20231;-81
2024/01/14 02:28:24;;;;;;;1.27;1.17;;;11.20;99.90;;;;;;10497651;28;20670;-81
2024/01/14 02:33:27;;;;;;;1.93;1.77;;;11.50;99.90;;;;;;10505604;28;20204;-81
2024/01/14 02:38:29;;;;;;;2.20;1.60;;;11.40;99.90;;;;;;10490184;28;20209;-81
2024/01/14 02:43:32;;;;;;;1.30;1.20;;;11.20;99.90;;;;;;10484913;28;20241;-81
2024/01/14 02:48:34;;;;;;;1.67;1.57;;;11.10;99.90;;;;;;10489158;28;20284;-82
2024/01/14 02:53:37;;;;;;;2.50;1.40;;;11.40;99.90;;;;;;10479306;28;20221;-81
2024/01/14 02:58:40;;;;;;;1.50;0.97;;;11.50;99.90;;;;;;10450006;28;20240;-81
2024/01/14 03:03:43;;;;;;;2.07;1.20;;;11.50;99.90;;;;;;10450048;28;20284;-81
2024/01/14 03:08:45;;;;;;;1.77;1.60;;;11.20;99.90;;;;;;10470721;28;20324;-82
2024/01/14 03:13:48;;;;;;;2.93;2.30;;;11.00;99.90;;;;;;10472561;28;20239;-82
2024/01/14 03:18:50;;;;;;;1.13;0.80;;;10.80;99.90;;;;;;10449664;28;20631;-82
2024/01/14 03:23:53;;;;;;;2.17;1.20;;;11.00;99.90;;;;;;10488559;28;20576;-82
2024/01/14 03:28:56;;;;;;;2.10;1.53;;;10.90;99.90;;;;;;10490465;28;20266;-82
2024/01/14 03:33:58;;;;;;;2.57;1.97;;;10.90;99.90;;;;;;10482086;28;20229;-82
2024/01/14 03:39:03;;;;;;;1.70;1.60;;;10.60;99.90;;;;;;10490195;28;20235;-82
2024/01/14 03:44:06;;;;;;;1.60;1.30;;;10.70;99.90;;;;;;10460902;28;20286;-81
2024/01/14 03:49:09;;;;;;;1.70;1.17;;;10.70;99.90;;;;;;10447094;28;20262;-82
2024/01/14 03:54:11;;;;;;;2.00;1.50;;;10.60;99.90;;;;;;10430728;28;20238;-82
2024/01/14 03:59:14;;;;;;;1.70;1.53;;;10.70;99.90;;;;;;10488263;28;20274;-82
2024/01/14 04:04:16;;;;;;;0.70;0.70;;;10.60;99.90;;;;;;10495441;28;20747;-82
2024/01/14 04:09:19;;;;;;;0.97;0.87;;;10.90;99.90;;;;;;10497069;28;20309;-82
2024/01/14 04:14:22;;;;;;;1.50;1.13;;;11.30;99.90;;;;;;10495508;28;20220;-82
2024/01/14 04:19:24;;;;;;;1.60;1.20;;;11.30;99.90;;;;;;10455331;28;20666;-82
2024/01/14 04:24:26;;;;;;;1.80;1.63;;;11.40;99.90;;;;;;10490628;28;20276;-82
2024/01/14 04:29:29;;;;;;;0.80;0.63;;;11.30;99.90;;;;;;10496124;28;20317;-82
2024/01/14 04:34:31;;;;;;;1.47;1.00;;;11.60;99.90;;;;;;10496443;28;20727;-82
2024/01/14 04:39:34;;;;;;;1.50;1.07;;;11.50;99.90;;;;;;10495975;28;20236;-82
2024/01/14 04:44:37;;;;;;;1.57;0.80;;;11.00;99.90;;;;;;10495288;28;20283;-82
2024/01/14 04:49:39;;;;;;;1.00;0.80;;;11.20;99.90;;;;;;10488102;28;20256;-82
2024/01/14 04:54:42;;;;;;;2.53;0.93;;;11.50;99.90;;;;;;10495671;28;20232;-82
2024/01/14 04:59:44;;;;;;;4.00;1.13;;;11.40;99.90;;;;;;10494859;28;20229;-82
2024/01/14 05:04:47;;;;;;;3.70;1.57;;;11.30;99.90;;;;;;10468347;28;20273;-82
2024/01/14 05:09:50;;;;;;;1.37;0.90;;;11.30;99.90;;;;;;10455058;28;20681;-82
2024/01/14 05:14:52;;;;;;;1.80;0.83;;;11.30;99.90;;;;;;10493857;28;20229;-82
2024/01/14 05:19:54;;;;;;;1.53;1.33;;;10.70;99.90;;;;;;10493516;28;20281;-82
2024/01/14 05:24:57;;;;;;;1.03;0.67;;;10.70;99.90;;;;;;10460707;28;20255;-82
2024/01/14 05:29:59;;;;;;;1.50;0.40;;;10.90;99.90;;;;;;10464491;28;20616;-82
2024/01/14 05:35:02;;;;;;;1.17;1.03;;;11.10;99.90;;;;;;10493720;28;20730;-82
2024/01/14 05:40:05;;;;;;;2.67;1.30;;;11.30;99.90;;;;;;10491832;28;20241;-82
2024/01/14 05:45:10;;;;;;;1.23;0.80;;;11.30;99.90;;;;;;10480428;28;20239;-82
2024/01/14 05:50:13;;;;;;;1.90;1.07;;;11.00;99.90;;;;;;10492112;28;20288;-82
2024/01/14 05:55:16;;;;;;;1.23;1.10;;;11.00;99.90;;;;;;10491683;28;20651;-82
2024/01/14 06:00:22;;;;;;;2.50;0.90;;;11.00;99.90;;;;;;10492404;28;20231;-82
2024/01/14 06:05:25;;;;;;;0.67;0.60;;;10.70;99.90;;;;;;10491844;28;20262;-82
2024/01/14 06:10:27;;;;;;;1.27;0.93;;;11.10;99.90;;;;;;10491504;28;20261;-82
2024/01/14 06:15:30;;;;;;;1.20;1.07;;;11.10;99.90;;;;;;10492328;28;20295;-82
2024/01/14 06:20:32;;;;;;;1.83;0.80;;;11.10;99.90;;;;;;10480592;28;20665;-82
2024/01/14 06:25:35;;;;;;;1.43;1.07;;;11.00;99.90;;;;;;10455667;28;20236;-82
2024/01/14 06:30:37;;;;;;;4.70;0.97;;;11.20;99.90;;;;;;10464621;28;20665;-82
2024/01/14 06:35:40;;;;;;;2.73;1.00;;;11.00;99.90;;;;;;10491216;28;20667;-82
2024/01/14 06:40:42;;;;;;;1.40;1.03;;;11.00;99.90;;;;;;10490649;28;20996;-82
2024/01/14 06:45:56;;;;;;;1.67;1.30;;;11.00;99.90;;;;;;10474634;28;20756;-82
2024/01/14 06:51:00;;;;;;;1.37;0.57;;;11.30;99.90;;;;;;10462537;28;20292;-82
2024/01/14 06:56:03;;;;;;;1.53;1.03;;;11.00;99.90;;;;;;10489281;28;20760;-82
2024/01/14 07:01:07;;;;;;;2.80;1.07;;;11.10;99.90;;;;;;10488965;28;20239;-82
2024/01/14 07:06:15;;;;;;;5.50;1.23;;;11.30;99.90;;;;;;10490639;28;20629;-82
2024/01/14 07:11:17;;;;;;;1.20;1.00;;;11.10;99.90;;;;;;10489019;28;20281;-83
2024/01/14 07:16:20;;;;;;;4.07;1.57;;;10.90;99.90;;;;;;10489918;28;20226;-82
2024/01/14 07:21:23;;;;;;;2.40;1.03;;;11.00;99.90;;;;;;10490343;28;20992;-83
2024/01/14 07:26:25;;;;;;;1.20;1.03;;;10.70;99.90;;;;;;10488776;28;20283;-82
2024/01/14 07:31:30;;;;;;;2.57;1.40;;;10.80;99.90;;;;;;10488098;28;20311;-82
2024/01/14 07:36:33;;;;;;;0.80;0.80;;;10.70;99.90;;;;;;10492513;28;20301;-82
2024/01/14 07:41:35;;;;;;;2.47;1.17;;;10.90;99.90;;;;;;10497999;28;20254;-82
2024/01/14 07:46:39;;;;;;;2.07;1.63;;;10.80;99.90;;;;;;10473425;28;20242;-82
2024/01/14 07:51:42;;;;;;;2.00;1.23;;;10.90;99.90;;;;;;10483272;28;20230;-83
2024/01/14 07:56:45;;;;;;;2.30;0.73;;;11.10;99.90;;;;;;10466424;28;20232;-83
2024/01/14 08:01:47;;;;;;;1.40;1.10;;;11.30;99.90;;;;;;10495819;28;20267;-83
2024/01/14 08:06:50;;;;;;;1.33;0.90;;;11.30;99.90;;;;;;10496534;28;20629;-82
2024/01/14 08:11:52;;;;;;;1.40;1.07;;;11.30;99.90;;;;;;10496970;28;20298;-82
2024/01/14 08:16:55;;;;;;;2.83;0.93;;;11.10;99.90;;;;;;10494454;28;20652;-82
2024/01/14 08:21:58;;;;;;;3.90;1.60;;;11.40;99.90;;;;;;10490473;28;20592;-82
2024/01/14 08:27:01;;;;;;;1.83;0.80;;;10.90;99.90;;;;;;10496044;28;20725;-82
2024/01/14 08:32:04;;;;;;;1.30;0.80;;;11.20;99.90;;;;;;10480688;28;20580;-83
2024/01/14 08:37:06;;;;;;;1.07;0.80;;;11.60;99.90;;;;;;10454800;28;20654;-83
2024/01/14 08:42:09;;;;;;;3.57;1.30;;;11.30;99.90;;;;;;10456405;28;20288;-82
2024/01/14 08:47:12;;;;;;;0.83;0.83;;;11.40;99.90;;;;;;10493512;28;20297;-82
2024/01/14 08:52:14;;;;;;;1.73;0.90;;;11.10;99.90;;;;;;10493502;28;20738;-83
2024/01/14 08:57:17;;;;;;;1.17;0.90;;;11.20;99.90;;;;;;10494391;28;20625;-83
2024/01/14 09:02:19;;;;;;;2.13;0.80;;;11.40;99.90;;;;;;10493378;28;20598;-81
2024/01/14 09:07:24;;;;;;;4.63;0.90;;;11.40;99.90;;;;;;10451471;28;20316;-81
2024/01/14 09:12:27;;;;;;;3.73;1.07;;;11.00;99.90;;;;;;10478931;28;20247;-80
2024/01/14 09:17:29;;;;;;;1.17;0.73;;;11.40;99.90;;;;;;10497143;28;20260;-82
2024/01/14 09:22:31;;;;;;;3.57;1.53;;;11.50;99.90;;;;;;10492580;28;20250;-82
2024/01/14 09:27:35;;;;;;;1.50;0.73;;;10.90;99.90;;;;;;10491680;28;20313;-82
2024/01/14 09:32:37;;;;;;;2.77;1.00;;;11.50;99.90;;;;;;10493040;28;20204;-81
2024/01/14 09:37:40;;;;;;;2.50;1.27;;;11.50;99.90;;;;;;10495370;28;20234;-81
2024/01/14 09:42:47;;;;;;;1.10;0.83;;;11.30;99.90;;;;;;10483699;28;20199;-81
2024/01/14 09:47:50;;;;;;;4.67;1.70;;;11.50;99.90;;;;;;10498126;28;20220;-81
2024/01/14 09:52:55;;;;;;;0.70;0.70;;;11.30;99.90;;;;;;10496498;28;20206;-82
2024/01/14 09:58:00;;;;;;;1.97;1.10;;;11.30;99.90;;;;;;10477768;28;20247;-79
2024/01/14 10:03:03;;;;;;;0.20;0.20;;;11.40;99.90;;;;;;10493647;28;20261;-80
2024/01/14 10:08:07;;;;;;;1.07;0.97;;;11.70;99.90;;;;;;10475117;28;20316;-80
2024/01/14 10:13:09;;;;;;;3.67;1.37;;;11.50;99.90;;;;;;10492151;28;20229;-81
2024/01/14 10:18:12;;;;;;;1.60;0.93;;;11.70;99.90;;;;;;10491654;28;20381;-80
2024/01/14 10:23:16;;;;;;;2.10;1.23;;;11.70;99.90;;;;;;10457607;28;20282;-81
2024/01/14 10:28:19;;;;;;;2.10;1.00;;;11.90;99.90;;;;;;10487295;28;20320;-81
2024/01/14 10:33:25;;;;;;;2.20;1.00;;;12.00;99.90;;;;;;10490169;28;20231;-80
2024/01/14 10:38:28;;;;;;;3.87;1.53;;;11.80;99.90;;;;;;10491470;28;20234;-81
2024/01/14 10:43:32;;;;;;;1.47;0.77;;;12.00;99.90;;;;;;10490771;28;20229;-81
2024/01/14 10:48:40;;;;;;;1.43;0.50;;;11.90;99.90;;;;;;10489419;28;20649;-81
2024/01/14 10:54:12;;;;;;;3.20;1.43;;;11.90;99.90;;;;;;10489438;28;20591;-82
2024/01/14 10:59:17;;;;;;;2.17;1.23;;;11.80;99.90;;;;;;10471622;28;20298;-82
2024/01/14 11:04:21;;;;;;;2.03;1.30;;;11.60;99.90;;;;;;10487809;28;20663;-82
2024/01/14 11:09:23;;;;;;;3.00;1.93;;;11.40;99.90;;;;;;10489429;28;20259;-81
2024/01/14 11:14:38;;;;;;;4.70;1.10;;;11.40;99.90;;;;;;10497109;28;20229;-82
2024/01/14 11:19:42;;;;;;;3.57;1.90;;;11.10;99.90;;;;;;10498957;28;20230;-82
2024/01/14 11:24:45;;;;;;;8.30;2.10;;;11.20;99.90;;;;;;10490414;28;20659;-82
2024/01/14 11:29:48;;;;;;;6.43;2.73;;;8.40;99.90;;;;;;10497782;28;20307;-82
2024/01/14 11:34:51;;;;;;;2.40;1.47;;;5.30;99.90;;;;;;10498106;28;20285;-81
2024/01/14 11:40:07;;;;;;;2.67;1.47;;;5.00;99.90;;;;;;10481389;28;20221;-81
2024/01/14 11:45:32;;;;;;;1.50;0.90;;;7.80;99.90;;;;;;10492191;28;20298;-81
2024/01/14 11:50:36;;;;;;;2.73;1.77;;;9.20;99.90;;;;;;10497271;28;20255;-82
2024/01/14 11:55:40;;;;;;;2.03;1.23;;;10.10;99.90;;;;;;10513166;28;20223;-82
2024/01/14 12:00:44;;;;;;;2.40;1.50;;;10.20;99.90;;;;;;10511427;28;20358;-82
2024/01/14 12:05:48;;;;;;;1.40;1.10;;;10.80;99.90;;;;;;10496788;28;20657;-82
2024/01/14 12:10:50;;;;;;;3.10;1.90;;;10.90;99.90;;;;;;10480242;28;20271;-82
2024/01/14 12:15:53;;;;;;;7.63;1.20;;;11.00;99.90;;;;;;10495173;28;20242;-81
2024/01/14 12:21:06;;;;;;;2.33;1.37;;;11.20;99.90;;;;;;10492232;28;20611;-82
2024/01/14 12:26:28;;;;;;;1.50;0.90;;;11.50;99.90;;;;;;10495463;28;20661;-82
2024/01/14 12:31:34;;;;;;;2.20;1.50;;;11.50;99.90;;;;;;10496147;28;20270;-81
2024/01/14 12:36:54;;;;;;;3.57;1.67;;;11.40;99.90;;;;;;10494859;28;20310;-81
2024/01/14 12:41:57;;;;;;;12.30;1.53;;;11.30;99.90;;;;;;10496140;28;20230;-81
2024/01/14 12:47:04;;;;;;;1.80;1.03;;;11.30;99.90;;;;;;10487201;28;20275;-81
2024/01/14 12:52:08;;;;;;;3.73;1.70;;;11.50;99.90;;;;;;10493321;28;20250;-81
2024/01/14 12:57:11;;;;;;;5.03;2.00;;;11.20;99.90;;;;;;10494088;28;20226;-81
2024/01/14 13:02:25;;;;;;;5.43;2.27;;;11.20;99.90;;;;;;10485484;28;20239;-81
2024/01/14 13:07:28;;;;;;;2.27;1.00;;;11.00;99.90;;;;;;10492665;28;20603;-81
2024/01/14 13:12:31;;;;;;;2.67;1.53;;;11.10;99.90;;;;;;10491592;28;20253;-81
2024/01/14 13:17:34;;;;;;;3.03;1.63;;;11.50;99.90;;;;;;10485804;28;20620;-81
2024/01/14 13:22:37;;;;;;;4.20;2.20;;;11.50;99.90;;;;;;10465917;28;20239;-81
2024/01/14 13:27:40;;;;;;;3.77;1.77;;;11.30;99.90;;;;;;10485776;28;20260;-81
2024/01/14 13:32:42;;;;;;;1.47;1.00;;;11.50;99.90;;;;;;10480983;28;20287;-81
2024/01/14 13:37:45;;;;;;;1.50;1.10;;;11.50;99.90;;;;;;10477537;28;20218;-82
2024/01/14 13:42:47;;;;;;;3.20;0.70;;;11.50;99.90;;;;;;10476309;28;20228;-82
2024/01/14 13:47:50;;;;;;;2.60;1.70;;;11.80;99.90;;;;;;10481128;28;20230;-82
2024/01/14 13:52:53;;;;;;;2.90;1.43;;;11.60;99.90;;;;;;10471543;28;20250;-83
2024/01/14 13:57:56;;;;;;;5.17;2.00;;;11.50;99.90;;;;;;10488860;28;20229;-82
2024/01/14 14:02:58;;;;;;;3.33;2.30;;;11.30;99.90;;;;;;10482226;28;20238;-81
2024/01/14 14:08:02;;;;;;;4.70;2.03;;;10.90;99.90;;;;;;10489189;28;20238;-82
2024/01/14 14:13:05;;;;;;;6.20;2.23;;;10.90;99.90;;;;;;10500062;28;20607;-83
2024/01/14 14:18:07;;;;;;;3.83;1.73;;;11.00;99.90;;;;;;10501217;28;20222;-82
2024/01/14 14:23:21;;;;;;;2.73;1.80;;;11.30;99.90;;;;;;10496709;28;20202;-79
2024/01/14 14:28:23;;;;;;;13.50;5.77;;;10.70;99.90;;;;;;10454314;28;20255;-87
2024/01/14 14:33:26;;;;;;;9.83;5.03;;;9.30;99.90;;;;;;10485730;28;20202;-88
2024/01/14 14:38:29;;;;;;;6.57;4.40;;;5.70;99.90;;;;;;10497391;28;20206;-86
2024/01/14 14:43:31;;;;;;;8.80;5.70;;;4.00;99.90;;;;;;10495734;28;20251;-87
2024/01/14 14:48:34;;;;;;;9.67;6.30;;;3.20;99.90;;;;;;10499237;28;20774;-87
2024/01/14 14:53:37;;;;;;;14.23;7.80;;;2.70;99.90;;;;;;10496895;28;20206;-87
2024/01/14 14:58:39;;;;;;;11.43;6.93;;;2.30;99.90;;;;;;10460531;28;20195;-87
2024/01/14 15:03:42;;;;;;;14.17;7.17;;;2.10;99.90;;;;;;10476315;28;20643;-87
2024/01/14 15:08:45;;;;;;;12.30;7.77;;;2.00;99.90;;;;;;10497745;28;20280;-86
2024/01/14 15:13:48;;;;;;;10.73;7.80;;;1.80;99.90;;;;;;10494214;28;20253;-87
2024/01/14 15:18:51;;;;;;;9.73;7.03;;;1.80;99.90;;;;;;10132350;28;9999852;-87
2024/01/14 15:23:53;;;;;;;10.97;8.03;;;1.80;99.90;;;;;;10465038;28;20198;-86
2024/01/14 15:28:56;;;;;;;15.20;8.93;;;1.70;99.90;;;;;;10496899;28;20610;-83
2024/01/14 15:33:58;;;;;;;10.07;7.27;;;1.70;99.90;;;;;;10476425;28;20255;-86
2024/01/14 15:39:02;;;;;;;20.23;14.23;;;1.70;99.90;;;;;;10495393;28;20194;-86
2024/01/14 15:44:05;;;;;;;9.75;7.63;;;2.20;99.90;;;;;;10490631;28;20449;-87
2024/01/14 15:49:08;;;;;;;13.33;6.70;;;2.00;99.90;;;;;;10487425;28;20279;-89
2024/01/14 15:54:10;;;;;;;8.87;6.20;;;1.70;99.90;;;;;;10487948;28;20238;-87
2024/01/14 15:59:13;;;;;;;9.07;6.57;;;1.70;99.90;;;;;;10490350;28;20222;-87
2024/01/14 16:04:16;;;;;;;10.43;4.63;;;1.70;99.90;;;;;;10495075;28;20231;-86
2024/01/14 16:09:18;;;;;;;14.93;9.00;;;1.80;99.90;;;;;;10489330;28;20222;-87
2024/01/14 18:34:58;;;;;;;20.63;8.77;;;6.70;99.90;;;;;;10626716;27;20305;-82
2024/01/14 18:40:01;;;;;;;23.30;9.97;;;6.80;99.90;;;;;;10589934;27;20746;-83
2024/01/14 18:45:05;;;;;;;16.70;7.50;;;7.20;99.90;;;;;;10592660;27;20232;-84
2024/01/14 18:50:07;;;;;;;13.00;5.50;;;6.40;99.90;;;;;;10609048;27;20615;-84
2024/01/14 18:55:10;;;;;;;9.77;6.87;;;6.40;99.90;;;;;;10594924;28;20640;-84
2024/01/14 19:00:16;;;;;;;13.10;7.83;;;6.70;99.90;;;;;;10616302;28;20201;-85
2024/01/14 19:05:18;;;;;;;20.50;7.13;;;5.60;99.90;;;;;;10632138;27;20208;-84
2024/01/14 19:10:21;;;;;;;14.23;6.40;;;5.70;99.90;;;;;;10619368;27;20245;-85
2024/01/14 19:15:24;;;;;;;17.50;4.60;;;8.40;99.90;;;;;;10574171;28;20691;-85
2024/01/14 19:20:26;;;;;;;9.37;4.87;;;9.60;99.90;;;;;;10590916;28;20257;-84
2024/01/14 19:25:29;;;;;;;9.17;2.83;;;10.20;99.90;;;;;;10609746;28;20283;-85
2024/01/14 19:30:31;;;;;;;8.00;4.40;;;11.40;99.90;;;;;;10608204;28;20305;-85
2024/01/14 19:35:35;;;;;;;13.20;4.93;;;;;;;;;;10608598;28;20803;-85
2024/01/14 19:40:37;;;;;;;7.23;2.67;;;11.60;99.90;;;;;;10608874;28;20197;-84
2024/01/14 19:45:40;;;;;;;12.73;6.00;;;11.40;99.90;;;;;;10564890;28;20254;-85
2024/01/14 19:50:43;;;;;;;10.73;5.10;;;11.70;99.90;;;;;;10579842;28;20293;-84
2024/01/14 19:55:46;;;;;;;11.73;3.63;;;11.40;99.90;;;;;;10580085;28;20223;-84
2024/01/14 20:00:48;;;;;;;5.53;3.10;;;11.40;99.90;;;;;;10580593;28;20565;-85
2024/01/14 20:05:51;;;;;;;6.43;3.73;;;11.80;99.90;;;;;;10580535;28;20227;-85
2024/01/14 20:10:54;;;;;;;6.60;3.73;;;11.60;99.90;;;;;;10579219;28;20244;-85
2024/01/14 20:15:57;;;;;;;7.30;3.07;;;11.90;99.90;;;;;;10561124;28;20660;-85
2024/01/14 20:21:00;;;;;;;10.47;6.33;;;11.70;99.90;;;;;;10579114;28;20199;-85
2024/01/14 20:26:04;;;;;;;10.90;4.83;;;11.30;99.90;;;;;;10579760;28;20221;-85
2024/01/14 20:31:06;;;;;;;8.37;3.93;;;11.60;99.90;;;;;;10578132;28;20623;-85
2024/01/14 20:36:10;;;;;;;4.67;2.27;;;11.70;99.90;;;;;;10581241;27;20213;-84
2024/01/14 20:41:12;;;;;;;10.57;4.30;;;11.70;99.90;;;;;;10588731;27;20249;-85
2024/01/14 20:46:15;;;;;;;8.87;3.67;;;11.60;99.90;;;;;;10560963;28;20232;-84
2024/01/14 20:51:18;;;;;;;11.63;5.53;;;10.10;99.90;;;;;;10577226;27;20321;-85
2024/01/14 20:56:21;;;;;;;7.00;4.83;;;11.10;99.90;;;;;;10574695;27;20285;-84
2024/01/14 21:01:24;;;;;;;14.37;5.37;;;11.80;99.90;;;;;;10577717;28;20668;-85
2024/01/14 21:06:28;;;;;;;4.07;2.93;;;11.90;99.90;;;;;;10577472;28;20231;-85
2024/01/14 21:11:32;;;;;;;6.83;4.43;;;12.30;99.90;;;;;;10574227;28;20248;-85
2024/01/14 21:16:35;;;;;;;7.17;4.17;;;12.00;99.90;;;;;;10573253;27;20660;-84
2024/01/14 21:21:38;;;;;;;7.27;4.17;;;11.70;99.90;;;;;;10558418;28;20254;-84
2024/01/14 21:26:41;;;;;;;6.03;4.30;;;11.60;99.90;;;;;;10576195;27;20224;-85
2024/01/14 21:31:43;;;;;;;8.47;5.70;;;11.80;99.90;;;;;;10573570;28;20276;-84
2024/01/14 21:36:46;;;;;;;7.07;4.60;;;11.30;99.90;;;;;;10576916;28;20196;-84
2024/01/14 21:41:48;;;;;;;9.43;7.83;;;11.70;99.90;;;;;;10203377;28;9999663;-83
2024/01/14 21:46:51;;;;;;;10.03;7.43;;;12.10;99.90;;;;;;10604273;27;20283;-84
2024/01/14 21:51:53;;;;;;;9.57;3.30;;;11.70;99.90;;;;;;10577197;27;20240;-84
2024/01/14 21:56:56;;;;;;;10.13;6.67;;;12.10;99.90;;;;;;10572529;28;20250;-84
2024/01/14 22:01:58;;;;;;;6.13;4.47;;;11.10;99.90;;;;;;10571991;28;20239;-84
2024/01/14 22:07:01;;;;;;;9.57;6.10;;;11.10;99.90;;;;;;10553301;28;20235;-84
2024/01/14 22:12:04;;;;;;;10.77;7.33;;;10.30;99.90;;;;;;10572193;28;20233;-84
2024/01/14 22:17:06;;;;;;;12.00;7.27;;;9.80;99.90;;;;;;10562835;27;20737;-84
2024/01/14 22:22:10;;;;;;;7.90;4.73;;;9.40;99.90;;;;;;10571882;28;20672;-84
2024/01/14 22:27:12;;;;;;;9.87;5.50;;;10.10;99.90;;;;;;10570836;28;20689;-85
2024/01/14 22:32:15;;;;;;;5.87;5.27;;;10.30;99.90;;;;;;10571441;28;20292;-84
2024/01/14 22:37:20;;;;;;;12.57;8.73;;;10.20;99.90;;;;;;10594050;28;20637;-85
2024/01/14 22:42:23;;;;;;;5.33;2.97;;;9.60;99.90;;;;;;10566087;28;20279;-84
2024/01/14 22:47:25;;;;;;;5.83;4.07;;;10.10;99.90;;;;;;10578716;28;20262;-85
2024/01/14 22:52:28;;;;;;;14.87;9.03;;;10.60;99.90;;;;;;10552887;28;20258;-83
2024/01/14 22:57:30;;;;;;;10.50;8.33;;;10.30;99.90;;;;;;10570801;28;20912;-84
2024/01/14 23:02:33;;;;;;;7.33;4.67;;;9.80;99.90;;;;;;10570908;28;20225;-84
2024/01/14 23:07:35;;;;;;;12.27;9.37;;;9.30;99.90;;;;;;10571908;28;20241;-84
2024/01/14 23:12:38;;;;;;;9.47;6.43;;;9.20;99.90;;;;;;10570698;28;20667;-84
2024/01/14 23:17:41;;;;;;;14.00;10.27;;;8.90;99.90;;;;;;10574184;28;20239;-86
2024/01/14 23:22:43;;;;;;;4.70;4.00;;;8.20;99.90;;;;;;10581885;27;20238;-84
2024/01/14 23:27:46;;;;;;;8.63;5.33;;;8.80;99.90;;;;;;10575823;27;20216;-84
2024/01/14 23:32:48;;;;;;;8.20;4.30;;;9.70;99.90;;;;;;10566847;27;20262;-85
2024/01/14 23:37:52;;;;;;;13.63;8.93;;;9.70;99.90;;;;;;10567647;27;20221;-83
2024/01/14 23:42:55;;;;;;;3.80;2.23;;;9.00;99.90;;;;;;10571147;27;20287;-83
2024/01/14 23:47:57;;;;;;;8.60;4.83;;;10.30;99.90;;;;;;10589748;27;20272;-84
2024/01/14 23:53:00;;;;;;;4.60;4.13;;;9.60;99.90;;;;;;10602694;27;20248;-83
2024/01/14 23:58:03;;;;;;;3.83;2.47;;;10.70;99.90;;;;;;10567793;27;20224;-83
